sensor_id;sensor_type;location;lat;lon;timestamp;temperature;humidity
17080;DHT22;8655;57.106;-2.088;2022-12-18T00:00:54;14.60;43.70
17080;DHT22;8655;57.106;-2.088;2022-12-18T00:03:19;14.60;43.70
17080;DHT22;8655;57.106;-2.088;2022-12-18T00:05:49;14.60;43.70
17080;DHT22;8655;57.106;-2.088;2022-12-18T00:08:15;14.60;43.70
17080;DHT22;8655;57.106;-2.088;2022-12-18T00:10:41;14.60;44.30
17080;DHT22;8655;57.106;-2.088;2022-12-18T00:13:07;14.60;43.70
17080;DHT22;8655;57.106;-2.088;2022-12-18T00:15:36;14.60;44.30
17080;DHT22;8655;57.106;-2.088;2022-12-18T00:18:02;14.50;43.60
17080;DHT22;8655;57.106;-2.088;2022-12-18T00:20:28;14.60;43.70
17080;DHT22;8655;57.106;-2.088;2022-12-18T00:22:54;14.50;43.60
17080;DHT22;8655;57.106;-2.088;2022-12-18T00:25:20;14.50;43.60
17080;DHT22;8655;57.106;-2.088;2022-12-18T00:27:45;14.50;43.60
17080;DHT22;8655;57.106;-2.088;2022-12-18T00:30:12;14.50;43.60
17080;DHT22;8655;57.106;-2.088;2022-12-18T00:32:38;14.50;43.60
17080;DHT22;8655;57.106;-2.088;2022-12-18T00:35:04;14.50;43.60
17080;DHT22;8655;57.106;-2.088;2022-12-18T00:37:30;14.50;43.60
17080;DHT22;8655;57.106;-2.088;2022-12-18T00:39:56;14.50;43.60
17080;DHT22;8655;57.106;-2.088;2022-12-18T00:42:21;14.50;43.60
17080;DHT22;8655;57.106;-2.088;2022-12-18T00:45:06;14.50;43.60
17080;DHT22;8655;57.106;-2.088;2022-12-18T00:47:31;14.50;43.60
17080;DHT22;8655;57.106;-2.088;2022-12-18T00:49:57;14.50;43.60
17080;DHT22;8655;57.106;-2.088;2022-12-18T00:52:23;14.40;43.50
17080;DHT22;8655;57.106;-2.088;2022-12-18T00:54:48;14.40;43.50
17080;DHT22;8655;57.106;-2.088;2022-12-18T00:57:14;14.40;43.50
17080;DHT22;8655;57.106;-2.088;2022-12-18T00:59:40;14.40;43.50
17080;DHT22;8655;57.106;-2.088;2022-12-18T01:02:05;14.40;43.50
17080;DHT22;8655;57.106;-2.088;2022-12-18T01:04:32;14.40;43.50
17080;DHT22;8655;57.106;-2.088;2022-12-18T01:06:58;14.40;43.50
17080;DHT22;8655;57.106;-2.088;2022-12-18T01:09:24;14.40;43.50
17080;DHT22;8655;57.106;-2.088;2022-12-18T01:11:49;14.40;43.50
17080;DHT22;8655;57.106;-2.088;2022-12-18T01:14:15;14.40;43.50
17080;DHT22;8655;57.106;-2.088;2022-12-18T01:16:41;14.40;43.50
17080;DHT22;8655;57.106;-2.088;2022-12-18T01:19:07;14.40;43.50
17080;DHT22;8655;57.106;-2.088;2022-12-18T01:21:33;14.40;43.50
17080;DHT22;8655;57.106;-2.088;2022-12-18T01:23:59;14.40;43.50
17080;DHT22;8655;57.106;-2.088;2022-12-18T01:26:25;14.30;43.40
17080;DHT22;8655;57.106;-2.088;2022-12-18T01:28:51;14.30;43.40
17080;DHT22;8655;57.106;-2.088;2022-12-18T01:31:22;14.30;43.40
17080;DHT22;8655;57.106;-2.088;2022-12-18T01:33:50;14.30;43.40
17080;DHT22;8655;57.106;-2.088;2022-12-18T01:36:18;14.30;43.40
17080;DHT22;8655;57.106;-2.088;2022-12-18T01:38:46;14.30;43.40
17080;DHT22;8655;57.106;-2.088;2022-12-18T01:41:12;14.30;43.40
17080;DHT22;8655;57.106;-2.088;2022-12-18T01:43:57;14.30;43.40
17080;DHT22;8655;57.106;-2.088;2022-12-18T01:46:24;14.30;43.40
17080;DHT22;8655;57.106;-2.088;2022-12-18T01:48:55;14.30;43.40
17080;DHT22;8655;57.106;-2.088;2022-12-18T01:51:22;14.30;43.40
17080;DHT22;8655;57.106;-2.088;2022-12-18T01:53:48;14.30;43.40
17080;DHT22;8655;57.106;-2.088;2022-12-18T01:56:16;14.30;43.40
17080;DHT22;8655;57.106;-2.088;2022-12-18T01:59:03;14.30;43.40
17080;DHT22;8655;57.106;-2.088;2022-12-18T02:01:31;14.20;43.30
17080;DHT22;8655;57.106;-2.088;2022-12-18T02:04:21;14.20;43.30
17080;DHT22;8655;57.106;-2.088;2022-12-18T02:06:53;14.20;43.30
17080;DHT22;8655;57.106;-2.088;2022-12-18T02:09:42;14.20;43.30
17080;DHT22;8655;57.106;-2.088;2022-12-18T02:27:45;14.20;43.30
17080;DHT22;8655;57.106;-2.088;2022-12-18T02:30:12;14.10;43.20
17080;DHT22;8655;57.106;-2.088;2022-12-18T02:32:42;14.10;43.20
17080;DHT22;8655;57.106;-2.088;2022-12-18T02:35:14;14.10;43.30
17080;DHT22;8655;57.106;-2.088;2022-12-18T02:37:42;14.10;43.30
17080;DHT22;8655;57.106;-2.088;2022-12-18T02:40:09;14.10;43.30
17080;DHT22;8655;57.106;-2.088;2022-12-18T02:42:36;14.10;43.20
17080;DHT22;8655;57.106;-2.088;2022-12-18T02:45:02;14.10;43.20
17080;DHT22;8655;57.106;-2.088;2022-12-18T02:47:32;14.10;43.20
17080;DHT22;8655;57.106;-2.088;2022-12-18T02:57:58;14.10;43.20
17080;DHT22;8655;57.106;-2.088;2022-12-18T03:01:01;14.10;43.20
17080;DHT22;8655;57.106;-2.088;2022-12-18T03:03:50;14.00;43.10
17080;DHT22;8655;57.106;-2.088;2022-12-18T03:06:39;14.00;43.10
17080;DHT22;8655;57.106;-2.088;2022-12-18T03:09:10;14.00;43.10
17080;DHT22;8655;57.106;-2.088;2022-12-18T03:11:39;14.00;43.10
17080;DHT22;8655;57.106;-2.088;2022-12-18T03:14:26;14.00;43.10
17080;DHT22;8655;57.106;-2.088;2022-12-18T03:16:54;14.00;43.10
17080;DHT22;8655;57.106;-2.088;2022-12-18T03:19:27;14.00;43.10
17080;DHT22;8655;57.106;-2.088;2022-12-18T03:21:56;14.00;43.20
17080;DHT22;8655;57.106;-2.088;2022-12-18T03:24:22;14.00;43.20
17080;DHT22;8655;57.106;-2.088;2022-12-18T03:26:53;14.00;43.10
17080;DHT22;8655;57.106;-2.088;2022-12-18T03:29:25;13.90;43.00
17080;DHT22;8655;57.106;-2.088;2022-12-18T03:31:55;13.90;43.00
17080;DHT22;8655;57.106;-2.088;2022-12-18T03:34:28;14.00;43.10
17080;DHT22;8655;57.106;-2.088;2022-12-18T03:36:55;13.90;43.00
17080;DHT22;8655;57.106;-2.088;2022-12-18T03:39:21;13.90;43.00
17080;DHT22;8655;57.106;-2.088;2022-12-18T03:41:55;13.90;43.00
17080;DHT22;8655;57.106;-2.088;2022-12-18T03:47:19;13.90;43.00
17080;DHT22;8655;57.106;-2.088;2022-12-18T03:52:40;13.90;43.00
17080;DHT22;8655;57.106;-2.088;2022-12-18T03:55:08;13.90;43.00
17080;DHT22;8655;57.106;-2.088;2022-12-18T03:57:35;13.90;43.00
17080;DHT22;8655;57.106;-2.088;2022-12-18T04:00:09;13.90;43.00
17080;DHT22;8655;57.106;-2.088;2022-12-18T04:02:38;13.90;43.00
17080;DHT22;8655;57.106;-2.088;2022-12-18T04:05:07;13.90;43.00
17080;DHT22;8655;57.106;-2.088;2022-12-18T04:07:34;13.90;43.00
17080;DHT22;8655;57.106;-2.088;2022-12-18T04:10:02;13.90;43.00
17080;DHT22;8655;57.106;-2.088;2022-12-18T04:12:29;13.90;43.00
17080;DHT22;8655;57.106;-2.088;2022-12-18T04:14:55;13.90;43.00
17080;DHT22;8655;57.106;-2.088;2022-12-18T04:17:21;13.90;43.00
17080;DHT22;8655;57.106;-2.088;2022-12-18T04:19:47;13.80;43.00
17080;DHT22;8655;57.106;-2.088;2022-12-18T04:22:12;13.80;43.00
17080;DHT22;8655;57.106;-2.088;2022-12-18T04:24:38;13.80;42.90
17080;DHT22;8655;57.106;-2.088;2022-12-18T04:27:04;13.80;42.90
17080;DHT22;8655;57.106;-2.088;2022-12-18T04:29:29;13.80;42.90
17080;DHT22;8655;57.106;-2.088;2022-12-18T04:31:55;13.80;42.90
17080;DHT22;8655;57.106;-2.088;2022-12-18T04:34:21;13.80;42.90
17080;DHT22;8655;57.106;-2.088;2022-12-18T04:36:47;13.80;42.90
17080;DHT22;8655;57.106;-2.088;2022-12-18T04:39:14;13.80;42.90
17080;DHT22;8655;57.106;-2.088;2022-12-18T04:41:42;13.80;42.90
17080;DHT22;8655;57.106;-2.088;2022-12-18T04:44:08;13.80;43.00
17080;DHT22;8655;57.106;-2.088;2022-12-18T04:46:34;13.70;42.90
17080;DHT22;8655;57.106;-2.088;2022-12-18T04:48:59;13.80;43.00
17080;DHT22;8655;57.106;-2.088;2022-12-18T04:51:25;13.80;43.00
17080;DHT22;8655;57.106;-2.088;2022-12-18T04:53:50;13.80;42.90
17080;DHT22;8655;57.106;-2.088;2022-12-18T04:56:16;13.80;42.90
17080;DHT22;8655;57.106;-2.088;2022-12-18T04:58:44;13.70;42.90
17080;DHT22;8655;57.106;-2.088;2022-12-18T05:01:12;13.80;42.90
17080;DHT22;8655;57.106;-2.088;2022-12-18T05:03:38;13.70;42.90
17080;DHT22;8655;57.106;-2.088;2022-12-18T05:06:05;13.70;42.90
17080;DHT22;8655;57.106;-2.088;2022-12-18T05:08:31;13.70;42.90
17080;DHT22;8655;57.106;-2.088;2022-12-18T05:11:01;13.70;42.90
17080;DHT22;8655;57.106;-2.088;2022-12-18T05:13:27;13.70;42.90
17080;DHT22;8655;57.106;-2.088;2022-12-18T05:15:53;13.70;42.90
17080;DHT22;8655;57.106;-2.088;2022-12-18T05:18:19;13.70;42.90
17080;DHT22;8655;57.106;-2.088;2022-12-18T05:20:45;13.70;42.90
17080;DHT22;8655;57.106;-2.088;2022-12-18T05:23:11;13.70;42.90
17080;DHT22;8655;57.106;-2.088;2022-12-18T05:25:37;13.70;42.90
17080;DHT22;8655;57.106;-2.088;2022-12-18T05:28:02;13.70;42.90
17080;DHT22;8655;57.106;-2.088;2022-12-18T05:30:28;13.70;42.90
17080;DHT22;8655;57.106;-2.088;2022-12-18T05:32:54;13.70;42.90
17080;DHT22;8655;57.106;-2.088;2022-12-18T05:35:20;13.70;42.90
17080;DHT22;8655;57.106;-2.088;2022-12-18T05:37:45;13.70;42.90
17080;DHT22;8655;57.106;-2.088;2022-12-18T05:40:11;13.70;42.90
17080;DHT22;8655;57.106;-2.088;2022-12-18T05:42:37;13.70;42.90
17080;DHT22;8655;57.106;-2.088;2022-12-18T05:45:04;13.70;42.90
17080;DHT22;8655;57.106;-2.088;2022-12-18T05:47:30;13.60;42.80
17080;DHT22;8655;57.106;-2.088;2022-12-18T05:49:56;13.60;42.80
17080;DHT22;8655;57.106;-2.088;2022-12-18T05:52:22;13.60;42.80
17080;DHT22;8655;57.106;-2.088;2022-12-18T05:54:48;13.60;42.80
17080;DHT22;8655;57.106;-2.088;2022-12-18T05:57:14;13.60;42.90
17080;DHT22;8655;57.106;-2.088;2022-12-18T05:59:39;13.60;42.80
17080;DHT22;8655;57.106;-2.088;2022-12-18T06:02:05;13.60;42.80
17080;DHT22;8655;57.106;-2.088;2022-12-18T06:04:31;13.60;42.80
17080;DHT22;8655;57.106;-2.088;2022-12-18T06:06:57;13.60;42.80
17080;DHT22;8655;57.106;-2.088;2022-12-18T06:09:23;13.60;42.80
17080;DHT22;8655;57.106;-2.088;2022-12-18T06:11:49;13.60;42.80
17080;DHT22;8655;57.106;-2.088;2022-12-18T06:14:16;13.60;42.80
17080;DHT22;8655;57.106;-2.088;2022-12-18T06:16:42;13.60;42.80
17080;DHT22;8655;57.106;-2.088;2022-12-18T06:19:15;13.60;42.80
17080;DHT22;8655;57.106;-2.088;2022-12-18T06:21:41;13.60;42.80
17080;DHT22;8655;57.106;-2.088;2022-12-18T06:24:07;13.60;42.80
17080;DHT22;8655;57.106;-2.088;2022-12-18T06:26:33;13.60;42.80
17080;DHT22;8655;57.106;-2.088;2022-12-18T06:28:59;13.60;42.90
17080;DHT22;8655;57.106;-2.088;2022-12-18T06:31:25;13.60;42.90
17080;DHT22;8655;57.106;-2.088;2022-12-18T06:33:51;13.60;43.00
17080;DHT22;8655;57.106;-2.088;2022-12-18T06:36:17;13.60;42.90
17080;DHT22;8655;57.106;-2.088;2022-12-18T06:38:43;13.70;43.60
17080;DHT22;8655;57.106;-2.088;2022-12-18T06:41:11;13.70;43.00
17080;DHT22;8655;57.106;-2.088;2022-12-18T06:43:37;13.70;43.00
17080;DHT22;8655;57.106;-2.088;2022-12-18T06:46:04;13.80;43.10
17080;DHT22;8655;57.106;-2.088;2022-12-18T06:48:30;13.80;43.10
17080;DHT22;8655;57.106;-2.088;2022-12-18T06:50:56;13.90;43.10
17080;DHT22;8655;57.106;-2.088;2022-12-18T06:53:22;14.00;43.20
17080;DHT22;8655;57.106;-2.088;2022-12-18T06:55:48;14.00;43.10
17080;DHT22;8655;57.106;-2.088;2022-12-18T06:58:13;14.10;43.20
17080;DHT22;8655;57.106;-2.088;2022-12-18T07:00:39;14.20;43.30
17080;DHT22;8655;57.106;-2.088;2022-12-18T07:03:05;14.20;43.30
17080;DHT22;8655;57.106;-2.088;2022-12-18T07:05:30;14.20;43.20
17080;DHT22;8655;57.106;-2.088;2022-12-18T07:07:56;14.30;43.30
17080;DHT22;8655;57.106;-2.088;2022-12-18T07:10:22;14.40;43.40
17080;DHT22;8655;57.106;-2.088;2022-12-18T07:12:48;14.40;43.40
17080;DHT22;8655;57.106;-2.088;2022-12-18T07:15:14;14.50;43.40
17080;DHT22;8655;57.106;-2.088;2022-12-18T07:17:39;14.50;43.40
17080;DHT22;8655;57.106;-2.088;2022-12-18T07:20:05;14.60;43.50
17080;DHT22;8655;57.106;-2.088;2022-12-18T07:22:31;14.70;43.50
17080;DHT22;8655;57.106;-2.088;2022-12-18T07:24:57;14.70;43.50
17080;DHT22;8655;57.106;-2.088;2022-12-18T07:27:23;14.80;43.60
17080;DHT22;8655;57.106;-2.088;2022-12-18T07:29:48;14.80;43.60
17080;DHT22;8655;57.106;-2.088;2022-12-18T07:32:14;14.90;43.70
17080;DHT22;8655;57.106;-2.088;2022-12-18T07:34:40;15.00;43.70
17080;DHT22;8655;57.106;-2.088;2022-12-18T07:37:05;15.00;43.70
17080;DHT22;8655;57.106;-2.088;2022-12-18T07:39:31;15.10;43.80
17080;DHT22;8655;57.106;-2.088;2022-12-18T07:41:57;15.10;43.80
17080;DHT22;8655;57.106;-2.088;2022-12-18T07:44:41;15.20;43.90
17080;DHT22;8655;57.106;-2.088;2022-12-18T07:47:07;15.20;43.80
17080;DHT22;8655;57.106;-2.088;2022-12-18T07:49:32;15.30;44.00
17080;DHT22;8655;57.106;-2.088;2022-12-18T07:51:58;15.30;43.90
17080;DHT22;8655;57.106;-2.088;2022-12-18T07:54:24;15.40;44.00
17080;DHT22;8655;57.106;-2.088;2022-12-18T07:56:51;15.40;44.00
17080;DHT22;8655;57.106;-2.088;2022-12-18T07:59:17;15.50;44.10
17080;DHT22;8655;57.106;-2.088;2022-12-18T08:01:43;15.50;44.10
17080;DHT22;8655;57.106;-2.088;2022-12-18T08:04:08;15.60;44.10
17080;DHT22;8655;57.106;-2.088;2022-12-18T08:06:34;15.60;44.10
17080;DHT22;8655;57.106;-2.088;2022-12-18T08:09:00;15.70;44.20
17080;DHT22;8655;57.106;-2.088;2022-12-18T08:11:27;15.70;44.20
17080;DHT22;8655;57.106;-2.088;2022-12-18T08:13:53;15.80;44.30
17080;DHT22;8655;57.106;-2.088;2022-12-18T08:16:20;15.80;44.30
17080;DHT22;8655;57.106;-2.088;2022-12-18T08:18:46;15.90;44.40
17080;DHT22;8655;57.106;-2.088;2022-12-18T08:21:12;15.90;44.30
17080;DHT22;8655;57.106;-2.088;2022-12-18T08:23:39;15.90;44.30
17080;DHT22;8655;57.106;-2.088;2022-12-18T08:26:05;16.00;44.50
17080;DHT22;8655;57.106;-2.088;2022-12-18T08:28:31;16.10;44.50
17080;DHT22;8655;57.106;-2.088;2022-12-18T08:30:57;16.10;44.50
17080;DHT22;8655;57.106;-2.088;2022-12-18T08:33:22;16.10;44.50
17080;DHT22;8655;57.106;-2.088;2022-12-18T08:35:48;16.20;44.60
17080;DHT22;8655;57.106;-2.088;2022-12-18T08:38:14;16.20;44.50
17080;DHT22;8655;57.106;-2.088;2022-12-18T08:40:39;16.20;44.50
17080;DHT22;8655;57.106;-2.088;2022-12-18T08:43:05;16.20;44.50
17080;DHT22;8655;57.106;-2.088;2022-12-18T08:46:09;16.30;44.60
17080;DHT22;8655;57.106;-2.088;2022-12-18T08:48:35;16.30;44.70
17080;DHT22;8655;57.106;-2.088;2022-12-18T08:51:01;16.30;44.60
17080;DHT22;8655;57.106;-2.088;2022-12-18T08:53:27;16.30;44.60
17080;DHT22;8655;57.106;-2.088;2022-12-18T08:55:53;16.30;44.60
17080;DHT22;8655;57.106;-2.088;2022-12-18T08:58:19;16.30;44.70
17080;DHT22;8655;57.106;-2.088;2022-12-18T09:00:45;16.30;44.70
17080;DHT22;8655;57.106;-2.088;2022-12-18T09:03:17;16.30;44.70
17080;DHT22;8655;57.106;-2.088;2022-12-18T09:05:43;16.30;44.70
17080;DHT22;8655;57.106;-2.088;2022-12-18T09:08:10;16.30;44.70
17080;DHT22;8655;57.106;-2.088;2022-12-18T09:10:47;16.30;44.70
17080;DHT22;8655;57.106;-2.088;2022-12-18T09:13:13;16.30;44.70
17080;DHT22;8655;57.106;-2.088;2022-12-18T09:15:43;16.30;44.80
17080;DHT22;8655;57.106;-2.088;2022-12-18T09:18:09;16.20;44.70
17080;DHT22;8655;57.106;-2.088;2022-12-18T09:20:36;16.20;44.70
17080;DHT22;8655;57.106;-2.088;2022-12-18T09:23:02;16.20;44.70
17080;DHT22;8655;57.106;-2.088;2022-12-18T09:25:29;16.20;44.70
17080;DHT22;8655;57.106;-2.088;2022-12-18T09:28:05;16.20;44.70
17080;DHT22;8655;57.106;-2.088;2022-12-18T09:30:31;16.20;44.70
17080;DHT22;8655;57.106;-2.088;2022-12-18T09:32:59;16.20;44.80
17080;DHT22;8655;57.106;-2.088;2022-12-18T09:35:25;16.20;44.80
17080;DHT22;8655;57.106;-2.088;2022-12-18T09:37:51;16.10;44.70
17080;DHT22;8655;57.106;-2.088;2022-12-18T09:40:20;16.10;44.70
17080;DHT22;8655;57.106;-2.088;2022-12-18T09:42:51;16.10;44.80
17080;DHT22;8655;57.106;-2.088;2022-12-18T09:45:18;16.10;44.80
17080;DHT22;8655;57.106;-2.088;2022-12-18T09:47:45;16.00;44.70
17080;DHT22;8655;57.106;-2.088;2022-12-18T09:50:27;16.00;44.70
17080;DHT22;8655;57.106;-2.088;2022-12-18T09:52:59;16.00;44.80
17080;DHT22;8655;57.106;-2.088;2022-12-18T09:55:37;16.00;44.70
17080;DHT22;8655;57.106;-2.088;2022-12-18T10:00:33;15.90;44.70
17080;DHT22;8655;57.106;-2.088;2022-12-18T10:03:17;15.90;44.70
17080;DHT22;8655;57.106;-2.088;2022-12-18T10:10:48;15.90;44.70
17080;DHT22;8655;57.106;-2.088;2022-12-18T10:13:34;15.90;44.70
17080;DHT22;8655;57.106;-2.088;2022-12-18T10:21:41;15.80;44.70
17080;DHT22;8655;57.106;-2.088;2022-12-18T10:26:54;15.70;44.70
17080;DHT22;8655;57.106;-2.088;2022-12-18T10:29:21;15.70;44.70
17080;DHT22;8655;57.106;-2.088;2022-12-18T10:31:47;15.70;44.70
17080;DHT22;8655;57.106;-2.088;2022-12-18T10:34:14;15.70;44.70
17080;DHT22;8655;57.106;-2.088;2022-12-18T10:36:41;15.70;44.80
17080;DHT22;8655;57.106;-2.088;2022-12-18T10:39:24;15.70;44.80
17080;DHT22;8655;57.106;-2.088;2022-12-18T10:41:51;15.60;44.70
17080;DHT22;8655;57.106;-2.088;2022-12-18T10:44:19;15.60;44.70
17080;DHT22;8655;57.106;-2.088;2022-12-18T10:46:50;15.60;44.70
17080;DHT22;8655;57.106;-2.088;2022-12-18T10:49:25;15.60;44.70
17080;DHT22;8655;57.106;-2.088;2022-12-18T10:52:05;15.60;44.70
17080;DHT22;8655;57.106;-2.088;2022-12-18T10:54:32;15.60;44.70
17080;DHT22;8655;57.106;-2.088;2022-12-18T10:59:51;15.60;44.70
17080;DHT22;8655;57.106;-2.088;2022-12-18T11:02:35;15.50;44.70
17080;DHT22;8655;57.106;-2.088;2022-12-18T11:05:02;15.50;44.70
17080;DHT22;8655;57.106;-2.088;2022-12-18T11:07:48;15.50;44.70
17080;DHT22;8655;57.106;-2.088;2022-12-18T11:10:17;15.50;44.70
17080;DHT22;8655;57.106;-2.088;2022-12-18T11:12:44;15.50;44.70
17080;DHT22;8655;57.106;-2.088;2022-12-18T11:15:23;15.40;44.70
17080;DHT22;8655;57.106;-2.088;2022-12-18T11:17:52;15.40;44.70
17080;DHT22;8655;57.106;-2.088;2022-12-18T11:20:26;15.40;44.70
17080;DHT22;8655;57.106;-2.088;2022-12-18T11:23:01;15.40;44.70
17080;DHT22;8655;57.106;-2.088;2022-12-18T11:25:28;15.40;44.70
17080;DHT22;8655;57.106;-2.088;2022-12-18T11:28:00;15.40;44.70
17080;DHT22;8655;57.106;-2.088;2022-12-18T11:30:28;15.40;44.80
17080;DHT22;8655;57.106;-2.088;2022-12-18T11:33:16;15.40;44.80
17080;DHT22;8655;57.106;-2.088;2022-12-18T11:35:49;15.40;44.80
17080;DHT22;8655;57.106;-2.088;2022-12-18T11:38:37;15.30;44.70
17080;DHT22;8655;57.106;-2.088;2022-12-18T11:43:53;15.30;44.70
17080;DHT22;8655;57.106;-2.088;2022-12-18T11:46:29;15.30;44.70
17080;DHT22;8655;57.106;-2.088;2022-12-18T11:49:06;15.30;44.70
17080;DHT22;8655;57.106;-2.088;2022-12-18T11:51:42;15.30;44.80
17080;DHT22;8655;57.106;-2.088;2022-12-18T11:54:14;15.30;44.80
17080;DHT22;8655;57.106;-2.088;2022-12-18T11:56:46;15.20;44.70
17080;DHT22;8655;57.106;-2.088;2022-12-18T12:18:40;15.10;44.70
17080;DHT22;8655;57.106;-2.088;2022-12-18T12:26:35;15.10;44.70
17080;DHT22;8655;57.106;-2.088;2022-12-18T12:39:38;15.10;44.70
17080;DHT22;8655;57.106;-2.088;2022-12-18T12:42:13;15.10;44.70
17080;DHT22;8655;57.106;-2.088;2022-12-18T12:45:05;15.00;44.60
17080;DHT22;8655;57.106;-2.088;2022-12-18T12:47:38;15.00;44.60
17080;DHT22;8655;57.106;-2.088;2022-12-18T12:50:13;15.00;44.60
17080;DHT22;8655;57.106;-2.088;2022-12-18T12:52:53;15.00;44.60
17080;DHT22;8655;57.106;-2.088;2022-12-18T12:55:22;15.00;44.60
17080;DHT22;8655;57.106;-2.088;2022-12-18T12:58:06;15.00;44.60
17080;DHT22;8655;57.106;-2.088;2022-12-18T13:06:02;15.00;44.60
17080;DHT22;8655;57.106;-2.088;2022-12-18T13:08:31;15.00;44.60
17080;DHT22;8655;57.106;-2.088;2022-12-18T13:10:58;15.00;44.60
17080;DHT22;8655;57.106;-2.088;2022-12-18T13:13:56;15.00;44.60
17080;DHT22;8655;57.106;-2.088;2022-12-18T13:16:24;14.90;44.50
17080;DHT22;8655;57.106;-2.088;2022-12-18T13:18:51;15.00;44.60
17080;DHT22;8655;57.106;-2.088;2022-12-18T13:21:32;14.90;44.50
17080;DHT22;8655;57.106;-2.088;2022-12-18T13:24:15;14.90;44.50
17080;DHT22;8655;57.106;-2.088;2022-12-18T13:26:45;14.90;44.60
17080;DHT22;8655;57.106;-2.088;2022-12-18T13:29:11;14.90;44.50
17080;DHT22;8655;57.106;-2.088;2022-12-18T13:36:45;14.90;44.60
17080;DHT22;8655;57.106;-2.088;2022-12-18T13:41:47;14.90;44.60
17080;DHT22;8655;57.106;-2.088;2022-12-18T13:44:34;14.90;44.60
17080;DHT22;8655;57.106;-2.088;2022-12-18T13:47:02;14.90;44.60
17080;DHT22;8655;57.106;-2.088;2022-12-18T13:49:41;14.80;44.50
17080;DHT22;8655;57.106;-2.088;2022-12-18T13:52:36;14.80;44.50
17080;DHT22;8655;57.106;-2.088;2022-12-18T13:55:11;14.80;44.50
17080;DHT22;8655;57.106;-2.088;2022-12-18T13:57:40;14.80;44.50
17080;DHT22;8655;57.106;-2.088;2022-12-18T14:02:51;14.80;44.50
17080;DHT22;8655;57.106;-2.088;2022-12-18T14:07:52;14.80;44.60
17080;DHT22;8655;57.106;-2.088;2022-12-18T14:10:19;14.80;44.60
17080;DHT22;8655;57.106;-2.088;2022-12-18T14:12:47;14.70;44.50
17080;DHT22;8655;57.106;-2.088;2022-12-18T14:17:54;14.80;44.50
17080;DHT22;8655;57.106;-2.088;2022-12-18T14:20:20;14.70;44.50
17080;DHT22;8655;57.106;-2.088;2022-12-18T14:22:48;14.70;44.50
17080;DHT22;8655;57.106;-2.088;2022-12-18T14:25:24;14.70;44.50
17080;DHT22;8655;57.106;-2.088;2022-12-18T14:33:12;14.70;44.50
17080;DHT22;8655;57.106;-2.088;2022-12-18T14:36:05;14.70;44.50
17080;DHT22;8655;57.106;-2.088;2022-12-18T14:38:35;14.70;45.10
17080;DHT22;8655;57.106;-2.088;2022-12-18T14:41:05;14.70;44.50
17080;DHT22;8655;57.106;-2.088;2022-12-18T14:43:35;14.70;44.50
17080;DHT22;8655;57.106;-2.088;2022-12-18T14:46:06;14.70;44.50
17080;DHT22;8655;57.106;-2.088;2022-12-18T14:48:48;14.60;44.40
17080;DHT22;8655;57.106;-2.088;2022-12-18T14:51:22;14.60;44.40
17080;DHT22;8655;57.106;-2.088;2022-12-18T14:54:14;14.60;44.40
17080;DHT22;8655;57.106;-2.088;2022-12-18T14:57:25;14.60;44.40
17080;DHT22;8655;57.106;-2.088;2022-12-18T15:00:04;14.60;44.30
17080;DHT22;8655;57.106;-2.088;2022-12-18T15:02:30;14.60;44.40
17080;DHT22;8655;57.106;-2.088;2022-12-18T15:05:03;14.60;44.40
17080;DHT22;8655;57.106;-2.088;2022-12-18T15:07:44;14.60;44.40
17080;DHT22;8655;57.106;-2.088;2022-12-18T15:12:44;14.60;44.30
17080;DHT22;8655;57.106;-2.088;2022-12-18T15:18:11;14.50;44.20
17080;DHT22;8655;57.106;-2.088;2022-12-18T15:20:47;14.50;44.30
17080;DHT22;8655;57.106;-2.088;2022-12-18T15:23:20;14.50;44.20
17080;DHT22;8655;57.106;-2.088;2022-12-18T15:25:49;14.50;44.20
17080;DHT22;8655;57.106;-2.088;2022-12-18T15:33:44;14.50;44.20
17080;DHT22;8655;57.106;-2.088;2022-12-18T15:36:15;14.50;44.20
17080;DHT22;8655;57.106;-2.088;2022-12-18T15:38:43;14.50;44.20
17080;DHT22;8655;57.106;-2.088;2022-12-18T15:41:13;14.50;44.20
17080;DHT22;8655;57.106;-2.088;2022-12-18T15:43:39;14.40;44.20
17080;DHT22;8655;57.106;-2.088;2022-12-18T15:46:15;14.50;44.20
17080;DHT22;8655;57.106;-2.088;2022-12-18T15:48:46;14.50;44.20
17080;DHT22;8655;57.106;-2.088;2022-12-18T15:51:28;14.40;44.10
17080;DHT22;8655;57.106;-2.088;2022-12-18T15:53:56;14.40;44.20
17080;DHT22;8655;57.106;-2.088;2022-12-18T15:56:24;14.40;44.10
17080;DHT22;8655;57.106;-2.088;2022-12-18T15:59:14;14.40;44.20
17080;DHT22;8655;57.106;-2.088;2022-12-18T16:01:41;14.40;44.20
17080;DHT22;8655;57.106;-2.088;2022-12-18T16:04:11;14.40;44.20
17080;DHT22;8655;57.106;-2.088;2022-12-18T16:06:37;14.40;44.20
17080;DHT22;8655;57.106;-2.088;2022-12-18T16:09:04;14.40;44.20
17080;DHT22;8655;57.106;-2.088;2022-12-18T16:11:32;14.40;44.20
17080;DHT22;8655;57.106;-2.088;2022-12-18T16:16:48;14.40;44.20
17080;DHT22;8655;57.106;-2.088;2022-12-18T16:19:14;14.40;44.10
17080;DHT22;8655;57.106;-2.088;2022-12-18T16:21:40;14.30;44.00
17080;DHT22;8655;57.106;-2.088;2022-12-18T16:24:16;14.30;44.10
17080;DHT22;8655;57.106;-2.088;2022-12-18T16:26:43;14.30;44.00
17080;DHT22;8655;57.106;-2.088;2022-12-18T16:29:09;14.30;44.00
17080;DHT22;8655;57.106;-2.088;2022-12-18T16:31:36;14.30;44.00
17080;DHT22;8655;57.106;-2.088;2022-12-18T16:34:28;14.30;44.10
17080;DHT22;8655;57.106;-2.088;2022-12-18T16:36:55;14.30;44.10
17080;DHT22;8655;57.106;-2.088;2022-12-18T16:39:21;14.30;44.10
17080;DHT22;8655;57.106;-2.088;2022-12-18T16:41:47;14.30;44.10
17080;DHT22;8655;57.106;-2.088;2022-12-18T16:44:14;14.30;44.10
17080;DHT22;8655;57.106;-2.088;2022-12-18T16:46:40;14.30;44.10
17080;DHT22;8655;57.106;-2.088;2022-12-18T16:49:08;14.20;44.00
17080;DHT22;8655;57.106;-2.088;2022-12-18T16:51:35;14.30;44.10
17080;DHT22;8655;57.106;-2.088;2022-12-18T16:54:01;14.20;44.00
17080;DHT22;8655;57.106;-2.088;2022-12-18T16:56:26;14.20;44.00
17080;DHT22;8655;57.106;-2.088;2022-12-18T16:58:54;14.20;44.00
17080;DHT22;8655;57.106;-2.088;2022-12-18T17:01:20;14.20;44.00
17080;DHT22;8655;57.106;-2.088;2022-12-18T17:03:59;14.20;44.00
17080;DHT22;8655;57.106;-2.088;2022-12-18T17:06:26;14.20;44.00
17080;DHT22;8655;57.106;-2.088;2022-12-18T17:08:57;14.20;44.00
17080;DHT22;8655;57.106;-2.088;2022-12-18T17:11:29;14.20;44.00
17080;DHT22;8655;57.106;-2.088;2022-12-18T17:13:56;14.20;44.00
17080;DHT22;8655;57.106;-2.088;2022-12-18T17:16:22;14.20;44.00
17080;DHT22;8655;57.106;-2.088;2022-12-18T17:18:48;14.20;44.10
17080;DHT22;8655;57.106;-2.088;2022-12-18T17:21:14;14.20;44.00
17080;DHT22;8655;57.106;-2.088;2022-12-18T17:23:44;14.20;44.00
17080;DHT22;8655;57.106;-2.088;2022-12-18T17:26:14;14.20;44.10
17080;DHT22;8655;57.106;-2.088;2022-12-18T17:28:40;14.20;44.10
17080;DHT22;8655;57.106;-2.088;2022-12-18T17:31:16;14.20;44.10
17080;DHT22;8655;57.106;-2.088;2022-12-18T17:33:42;14.20;44.10
17080;DHT22;8655;57.106;-2.088;2022-12-18T17:36:08;14.20;44.00
17080;DHT22;8655;57.106;-2.088;2022-12-18T17:38:35;14.10;44.00
17080;DHT22;8655;57.106;-2.088;2022-12-18T17:41:03;14.20;44.10
17080;DHT22;8655;57.106;-2.088;2022-12-18T17:43:29;14.10;44.00
17080;DHT22;8655;57.106;-2.088;2022-12-18T17:45:55;14.10;44.00
17080;DHT22;8655;57.106;-2.088;2022-12-18T17:48:21;14.10;44.00
17080;DHT22;8655;57.106;-2.088;2022-12-18T17:50:50;14.10;44.00